createdAt,value
2023-04-21T00:02:41.605Z,1.90
2023-04-21T00:07:43.384Z,1.73
2023-04-21T00:12:44.862Z,1.48
2023-04-21T00:17:46.350Z,1.52
2023-04-21T00:22:47.947Z,1.35
2023-04-21T00:27:49.686Z,1.98
2023-04-21T00:32:51.254Z,1.77
2023-04-21T00:37:52.772Z,1.73
2023-04-21T00:42:54.252Z,1.80
2023-04-21T00:47:55.982Z,1.63
2023-04-21T00:52:57.719Z,1.80
2023-04-21T00:57:59.501Z,1.98
2023-04-21T01:03:01.454Z,1.92
2023-04-21T01:08:03.233Z,1.95
2023-04-21T01:13:04.716Z,1.77
2023-04-21T01:18:06.287Z,1.73
2023-04-21T01:23:07.758Z,1.83
2023-04-21T01:28:09.221Z,1.77
2023-04-21T01:33:10.745Z,1.58
2023-04-21T01:38:12.470Z,2.00
2023-04-21T01:43:14.315Z,2.58
2023-04-21T01:48:16.123Z,1.60
2023-04-21T01:53:17.617Z,2.00
2023-04-21T01:58:19.114Z,1.58
2023-04-21T02:03:20.734Z,2.10
2023-04-21T02:08:22.350Z,1.80
2023-04-21T02:13:23.887Z,1.77
2023-04-21T02:18:26.016Z,1.88
2023-04-21T02:23:27.467Z,1.80
2023-04-21T02:28:29.046Z,1.95
2023-04-21T02:33:30.561Z,1.92
2023-04-21T02:38:32.142Z,2.05
2023-04-21T02:43:33.635Z,1.67
2023-04-21T02:48:35.998Z,1.50
2023-04-21T02:53:37.707Z,2.20
2023-04-21T02:58:39.239Z,1.88
2023-04-21T03:03:40.834Z,2.03
2023-04-21T03:08:42.374Z,1.90
2023-04-21T03:13:43.854Z,1.85
2023-04-21T03:18:45.623Z,1.70
2023-04-21T03:23:47.132Z,1.65
2023-04-21T03:28:48.607Z,2.08
2023-04-21T03:33:50.069Z,2.63
2023-04-21T03:38:51.550Z,2.45
2023-04-21T03:43:53.049Z,2.42
2023-04-21T03:48:54.725Z,2.40
2023-04-21T03:53:56.273Z,2.55
2023-04-21T03:58:58.191Z,2.13
2023-04-21T04:03:59.784Z,2.65
2023-04-21T04:09:04.596Z,1.92
2023-04-21T04:14:06.293Z,2.20
2023-04-21T04:19:07.802Z,2.17
2023-04-21T04:24:11.197Z,2.47
2023-04-21T04:29:13.932Z,1.90
2023-04-21T04:34:15.735Z,2.05
2023-04-21T04:39:17.479Z,2.22
2023-04-21T04:44:19.358Z,2.35
2023-04-21T04:49:23.599Z,2.10
2023-04-21T04:54:25.790Z,2.25
2023-04-21T04:59:29.032Z,2.28
2023-04-21T05:04:32.134Z,2.85
2023-04-21T05:09:34.187Z,2.05
2023-04-21T05:14:35.783Z,2.30
2023-04-21T05:19:39.863Z,2.55
2023-04-21T05:24:42.504Z,2.45
2023-04-21T05:29:44.050Z,2.55
2023-04-21T05:34:45.654Z,2.53
2023-04-21T05:39:47.138Z,1.73
2023-04-21T05:44:48.611Z,2.00
2023-04-21T05:49:52.531Z,1.80
2023-04-21T05:54:53.990Z,1.48
2023-04-21T05:59:55.455Z,2.13
2023-04-21T06:04:57.136Z,1.30
2023-04-21T06:09:58.960Z,1.55
2023-04-21T06:15:00.515Z,1.38
2023-04-21T06:20:02.045Z,1.60
2023-04-21T06:25:03.641Z,1.38
2023-04-21T06:30:05.820Z,1.55
2023-04-21T06:35:07.557Z,1.50
2023-04-21T06:40:09.436Z,1.75
2023-04-21T06:45:11.361Z,1.10
2023-04-21T06:50:13.322Z,1.35
2023-04-21T06:55:14.850Z,1.65
2023-04-21T07:00:16.572Z,1.67
2023-04-21T07:05:18.103Z,1.50
2023-04-21T07:10:20.066Z,1.45
2023-04-21T07:15:22.000Z,1.17
2023-04-21T07:20:23.606Z,1.00
2023-04-21T07:25:25.117Z,1.60
2023-04-21T07:30:26.680Z,1.63
2023-04-21T07:35:28.299Z,1.10
2023-04-21T07:40:30.708Z,0.93
2023-04-21T07:45:32.735Z,1.02
2023-04-21T07:50:36.452Z,1.02
2023-04-21T07:55:38.267Z,0.90
2023-04-21T08:00:39.837Z,1.95
2023-04-21T08:05:42.001Z,0.93
2023-04-21T08:10:43.972Z,0.93
2023-04-21T08:15:45.705Z,0.93
2023-04-21T08:20:48.132Z,1.10
2023-04-21T08:25:49.722Z,1.77
2023-04-21T08:30:51.328Z,1.40
2023-04-21T08:36:02.852Z,1.15
2023-04-21T08:41:07.845Z,0.55
2023-04-21T08:46:09.701Z,1.10
2023-04-21T08:51:11.613Z,0.65
2023-04-21T08:56:13.165Z,0.90
2023-04-21T09:01:14.836Z,0.90
2023-04-21T09:06:18.149Z,1.25
2023-04-21T09:11:19.997Z,0.85
2023-04-21T09:16:22.549Z,1.00
2023-04-21T09:21:29.503Z,1.00
2023-04-21T09:26:33.318Z,0.90
2023-04-21T09:31:36.461Z,0.80
2023-04-21T09:36:38.136Z,0.93
2023-04-21T09:41:39.708Z,0.50
2023-04-21T09:46:43.683Z,0.60
2023-04-21T09:56:53.079Z,0.50
2023-04-21T10:01:56.206Z,0.60
2023-04-21T10:06:58.597Z,0.40
2023-04-21T10:12:01.766Z,0.52
2023-04-21T10:17:07.220Z,0.68
2023-04-21T10:22:09.847Z,0.75
2023-04-21T10:27:12.869Z,0.77
2023-04-21T10:32:31.078Z,0.65
2023-04-21T10:37:33.872Z,0.60
2023-04-21T10:42:37.248Z,0.45
2023-04-21T10:47:43.739Z,0.80
2023-04-21T10:52:46.495Z,0.77
2023-04-21T10:57:48.081Z,0.70
2023-04-21T11:03:00.069Z,0.90
2023-04-21T11:08:02.479Z,0.70
2023-04-21T11:13:04.009Z,0.47
2023-04-21T11:18:06.032Z,0.52
2023-04-21T11:23:07.612Z,1.00
2023-04-21T11:28:09.121Z,0.65
2023-04-21T11:33:10.812Z,0.73
2023-04-21T11:38:14.928Z,0.70
2023-04-21T11:43:16.580Z,0.50
2023-04-21T11:48:19.723Z,0.60
2023-04-21T11:53:21.412Z,0.80
2023-04-21T11:58:22.922Z,0.73
2023-04-21T12:03:26.484Z,0.77
2023-04-21T12:08:34.497Z,0.70
2023-04-21T12:13:36.275Z,0.75
2023-04-21T12:18:37.929Z,0.70
2023-04-21T12:23:39.492Z,0.70
2023-04-21T12:28:41.018Z,0.80
2023-04-21T12:33:42.619Z,0.60
2023-04-21T12:38:44.728Z,0.80
2023-04-21T12:43:46.293Z,0.70
2023-04-21T12:48:48.908Z,0.65
2023-04-21T12:53:50.698Z,0.63
2023-04-21T12:58:52.218Z,0.70
2023-04-21T13:03:54.002Z,0.82
2023-04-21T13:08:56.090Z,0.68
2023-04-21T13:13:58.187Z,0.50
2023-04-21T13:18:59.741Z,0.70
2023-04-21T13:24:02.948Z,1.55
2023-04-21T13:29:04.678Z,0.60
2023-04-21T13:34:06.251Z,0.50
2023-04-21T13:39:11.151Z,0.50
2023-04-21T13:44:12.776Z,0.55
2023-04-21T13:49:14.441Z,0.52
2023-04-21T13:54:16.118Z,0.50
2023-04-21T13:59:17.694Z,0.88
2023-04-21T14:04:21.235Z,0.60
2023-04-21T14:09:22.969Z,0.50
2023-04-21T14:14:37.815Z,0.60
2023-04-21T14:19:40.676Z,0.90
2023-04-21T14:24:42.236Z,1.90
2023-04-21T14:29:43.802Z,0.40
2023-04-21T14:34:45.393Z,0.60
2023-04-21T14:39:46.999Z,0.75
2023-04-21T14:44:48.623Z,0.60
2023-04-21T14:49:55.147Z,0.88
2023-04-21T14:54:57.055Z,0.47
2023-04-21T14:59:58.620Z,0.57
2023-04-21T15:05:00.308Z,0.60
2023-04-21T15:10:02.065Z,0.50
2023-04-21T15:15:04.062Z,0.70
2023-04-21T15:20:05.963Z,0.60
2023-04-21T15:25:07.722Z,0.50
2023-04-21T15:30:09.551Z,0.60
2023-04-21T15:35:11.105Z,0.60
2023-04-21T15:40:12.859Z,0.55
2023-04-21T15:45:17.926Z,1.33
2023-04-21T15:50:19.662Z,0.80
2023-04-21T15:55:21.803Z,0.52
2023-04-21T16:00:23.353Z,0.52
2023-04-21T16:05:28.493Z,0.60
2023-04-21T16:10:30.687Z,0.50
2023-04-21T16:15:32.226Z,0.77
2023-04-21T16:20:34.162Z,0.60
2023-04-21T16:25:35.838Z,0.50
2023-04-21T16:30:38.655Z,0.77
2023-04-21T16:35:40.266Z,0.50
2023-04-21T16:40:41.952Z,0.60
2023-04-21T16:45:43.690Z,0.60
2023-04-21T16:50:45.820Z,0.60
2023-04-21T16:55:47.357Z,0.52
2023-04-21T17:00:48.903Z,0.80
2023-04-21T17:05:50.784Z,0.57
2023-04-21T17:10:52.257Z,0.47
2023-04-21T17:15:53.879Z,0.68
2023-04-21T17:20:55.345Z,0.50
2023-04-21T17:25:56.846Z,0.60
2023-04-21T17:31:13.804Z,0.80
2023-04-21T17:36:17.093Z,0.57
2023-04-21T17:41:18.645Z,0.65
2023-04-21T17:46:22.589Z,0.57
2023-04-21T17:51:26.312Z,0.90
2023-04-21T17:56:27.827Z,0.93
2023-04-21T18:01:29.370Z,1.02
2023-04-21T18:06:31.892Z,0.93
2023-04-21T18:11:33.421Z,1.05
2023-04-21T18:16:35.037Z,1.30
2023-04-21T18:21:36.723Z,0.82
2023-04-21T18:26:38.338Z,0.95
2023-04-21T18:31:39.880Z,0.80
2023-04-21T18:36:44.091Z,0.68
2023-04-21T18:41:48.394Z,0.85
2023-04-21T18:46:50.270Z,0.93
2023-04-21T18:51:52.021Z,0.70
2023-04-21T18:56:53.491Z,0.75
2023-04-21T19:01:55.494Z,0.90
2023-04-21T19:06:57.048Z,0.82
2023-04-21T19:11:58.569Z,0.75
2023-04-21T19:17:00.258Z,0.60
2023-04-21T19:22:04.181Z,0.50
2023-04-21T19:27:06.501Z,0.90
2023-04-21T19:32:08.065Z,0.70
2023-04-21T19:37:09.662Z,0.70
2023-04-21T19:42:11.157Z,0.80
2023-04-21T19:47:13.002Z,0.80
2023-04-21T19:52:14.574Z,1.27
2023-04-21T19:57:16.068Z,0.80
2023-04-21T20:02:17.885Z,0.85
2023-04-21T20:07:19.680Z,0.98
2023-04-21T20:12:21.197Z,0.80
2023-04-21T20:17:22.818Z,0.80
2023-04-21T20:22:25.963Z,1.15
2023-04-21T20:27:27.440Z,0.88
2023-04-21T20:32:28.969Z,0.88
2023-04-21T20:37:33.539Z,0.77
2023-04-21T20:42:35.495Z,0.77
2023-04-21T20:47:37.379Z,1.00
2023-04-21T20:52:38.863Z,1.20
2023-04-21T20:57:40.354Z,0.90
2023-04-21T21:02:42.106Z,0.90
2023-04-21T21:07:43.786Z,0.98
2023-04-21T21:12:45.341Z,1.40
2023-04-21T21:17:46.941Z,0.95
2023-04-21T21:22:48.424Z,1.42
2023-04-21T21:27:49.950Z,1.10
2023-04-21T21:32:52.874Z,0.63
2023-04-21T21:37:54.395Z,0.90
2023-04-21T21:42:55.890Z,1.20
2023-04-21T21:47:58.127Z,0.95
2023-04-21T21:52:59.932Z,0.95
2023-04-21T21:58:03.693Z,1.38
2023-04-21T22:03:05.324Z,1.00
2023-04-21T22:08:07.274Z,0.98
2023-04-21T22:13:08.755Z,1.30
2023-04-21T22:18:11.215Z,0.85
2023-04-21T22:23:13.099Z,0.88
2023-04-21T22:28:14.680Z,1.00
2023-04-21T22:33:16.177Z,1.27
2023-04-21T22:38:17.684Z,1.00
2023-04-21T22:43:19.240Z,1.25
2023-04-21T22:48:21.059Z,1.10
2023-04-21T22:53:22.521Z,1.40
2023-04-21T22:58:24.609Z,0.80
2023-04-21T23:03:26.271Z,1.00
2023-04-21T23:08:27.787Z,1.13
2023-04-21T23:13:29.979Z,1.48
2023-04-21T23:18:31.515Z,1.05
2023-04-21T23:23:32.953Z,0.98
2023-04-21T23:28:34.414Z,1.35
2023-04-21T23:33:36.060Z,1.10
2023-04-21T23:38:37.529Z,0.98
2023-04-21T23:43:39.100Z,1.20
2023-04-21T23:48:40.859Z,1.00
2023-04-21T23:53:42.422Z,1.20
2023-04-21T23:58:43.918Z,1.05
